Time;durP1;ratioP1;P1;durP2;ratioP2;P2;SDS_P1;SDS_P2;PMS_P1;PMS_P2;Temp;Humidity;BMP_temperature;BMP_pressure;BME280_temperature;BME280_humidity;BME280_pressure;Samples;Min_cycle;Max_cycle;Signal;HPM_P1;HPM_P2
2021/09/01 00:00:43;;;;;;;2.28;0.90;;;;;;;;;;5028619;28;20030;-76
2021/09/01 00:03:10;;;;;;;0.98;0.90;;;;;;;;;;5032320;28;20512;-76
2021/09/01 00:05:37;;;;;;;0.98;0.98;;;;;;;;;;5031255;28;20041;-76
2021/09/01 00:08:03;;;;;;;0.90;0.90;;;;;;;;;;5020741;28;20478;-76
2021/09/01 00:10:30;;;;;;;1.85;0.80;;;;;;;;;;5031693;28;20050;-76
2021/09/01 00:12:56;;;;;;;0.95;0.80;;;;;;;;;;5027938;28;20048;-76
2021/09/01 00:15:23;;;;;;;1.95;0.80;;;;;;;;;;5028994;28;20045;-76
2021/09/01 00:17:50;;;;;;;1.08;0.93;;;;;;;;;;5028076;28;20121;-76
2021/09/01 00:20:16;;;;;;;0.90;0.90;;;;;;;;;;5031669;28;20118;-76
2021/09/01 00:22:43;;;;;;;1.30;0.80;;;;;;;;;;5063537;28;20528;-76
2021/09/01 00:25:10;;;;;;;0.80;0.80;;;;;;;;;;5027151;28;20046;-76
2021/09/01 00:27:36;;;;;;;0.88;0.88;;;;;;;;;;5061166;28;20459;-76
2021/09/01 00:30:04;;;;;;;1.10;1.10;;;;;;;;;;5027957;28;20128;-76
2021/09/01 00:32:31;;;;;;;0.85;0.85;;;;;;;;;;5028817;28;20065;-76
2021/09/01 00:34:57;;;;;;;1.63;0.90;;;;;;;;;;5030904;28;20099;-76
2021/09/01 00:37:24;;;;;;;1.85;0.93;;;;;;;;;;5030109;28;20037;-76
2021/09/01 00:39:51;;;;;;;0.80;0.80;;;;;;;;;;5029760;28;20046;-76
2021/09/01 00:42:18;;;;;;;0.90;0.90;;;;;;;;;;5034415;28;20060;-76
2021/09/01 00:44:46;;;;;;;0.90;0.90;;;;;;;;;;5031287;28;20486;-76
2021/09/01 00:47:16;;;;;;;0.90;0.90;;;;;;;;;;5027826;28;20042;-76
2021/09/01 00:49:43;;;;;;;0.90;0.90;;;;;;;;;;5025198;28;20416;-76
2021/09/01 00:52:09;;;;;;;0.80;0.80;;;;;;;;;;5028441;28;20073;-76
2021/09/01 00:54:37;;;;;;;1.10;1.00;;;;;;;;;;5028790;28;20068;-76
2021/09/01 00:57:05;;;;;;;1.25;0.90;;;;;;;;;;5027956;28;20041;-76
2021/09/01 00:59:33;;;;;;;0.90;0.90;;;;;;;;;;5027876;28;20037;-76
2021/09/01 01:02:01;;;;;;;0.80;0.80;;;;;;;;;;5028124;28;20107;-76
2021/09/01 01:04:28;;;;;;;0.82;0.82;;;;;;;;;;5029628;28;20049;-76
2021/09/01 01:07:00;;;;;;;2.65;0.98;;;;;;;;;;5034651;28;20504;-76
2021/09/01 01:09:27;;;;;;;0.90;0.90;;;;;;;;;;5044521;28;20042;-76
2021/09/01 01:12:04;;;;;;;1.73;0.90;;;;;;;;;;5028594;28;20044;-76
2021/09/01 01:14:32;;;;;;;0.90;0.90;;;;;;;;;;5024247;28;20092;-76
2021/09/01 01:16:59;;;;;;;0.90;0.90;;;;;;;;;;5024751;28;20037;-76
2021/09/01 01:19:26;;;;;;;2.13;0.90;;;;;;;;;;5028379;28;20049;-76
2021/09/01 01:21:52;;;;;;;2.00;0.90;;;;;;;;;;5027889;28;20057;-76
2021/09/01 01:24:19;;;;;;;0.90;0.90;;;;;;;;;;5030533;28;20048;-76
2021/09/01 01:26:46;;;;;;;0.90;0.90;;;;;;;;;;5029022;28;20079;-76
2021/09/01 01:29:12;;;;;;;0.90;0.90;;;;;;;;;;5028491;28;20470;-76
2021/09/01 01:31:39;;;;;;;0.90;0.90;;;;;;;;;;5058639;28;20045;-76
2021/09/01 01:34:13;;;;;;;0.90;0.90;;;;;;;;;;5029232;28;20048;-76
2021/09/01 01:36:40;;;;;;;0.90;0.90;;;;;;;;;;5019719;28;20037;-76
2021/09/01 01:39:06;;;;;;;0.90;0.90;;;;;;;;;;5027044;28;20393;-76
2021/09/01 01:41:33;;;;;;;1.50;0.85;;;;;;;;;;5027800;28;20034;-76
2021/09/01 01:43:59;;;;;;;1.30;0.90;;;;;;;;;;5035600;28;20044;-76
2021/09/01 01:46:26;;;;;;;0.88;0.88;;;;;;;;;;5030344;28;20505;-76
2021/09/01 01:48:53;;;;;;;0.90;0.90;;;;;;;;;;5030348;28;20061;-76
2021/09/01 01:51:19;;;;;;;0.93;0.90;;;;;;;;;;5027673;28;20057;-76
2021/09/01 01:53:46;;;;;;;1.33;0.90;;;;;;;;;;5028125;28;20395;-76
2021/09/01 01:56:12;;;;;;;1.00;0.90;;;;;;;;;;5029774;28;20049;-76
2021/09/01 01:58:39;;;;;;;1.30;1.20;;;;;;;;;;5028249;28;20079;-76
2021/09/01 02:01:06;;;;;;;1.33;1.33;;;;;;;;;;5025355;28;20100;-76
2021/09/01 02:03:33;;;;;;;2.78;2.35;;;;;;;;;;5024532;28;20035;-76
2021/09/01 02:05:59;;;;;;;1.50;1.05;;;;;;;;;;5027295;28;20148;-76
2021/09/01 02:08:26;;;;;;;2.25;0.90;;;;;;;;;;5059717;28;20485;-76
2021/09/01 02:10:52;;;;;;;1.40;0.90;;;;;;;;;;5028155;28;20026;-76
2021/09/01 02:13:19;;;;;;;0.98;0.98;;;;;;;;;;5027747;28;20076;-76
2021/09/01 02:15:45;;;;;;;4.70;1.00;;;;;;;;;;5012256;28;20048;-76
2021/09/01 02:18:12;;;;;;;1.52;0.90;;;;;;;;;;5025751;28;20517;-76
2021/09/01 02:20:39;;;;;;;1.00;0.90;;;;;;;;;;5021776;28;20100;-76
2021/09/01 02:23:05;;;;;;;1.00;1.00;;;;;;;;;;5028223;28;20067;-76
2021/09/01 02:25:32;;;;;;;1.85;1.38;;;;;;;;;;5028230;28;20034;-76
2021/09/01 02:27:59;;;;;;;1.00;1.00;;;;;;;;;;5025552;28;20079;-76
2021/09/01 02:30:25;;;;;;;0.90;0.90;;;;;;;;;;5022935;28;20402;-76
2021/09/01 02:32:52;;;;;;;2.08;0.90;;;;;;;;;;5028337;28;20045;-76
2021/09/01 02:35:19;;;;;;;0.90;0.90;;;;;;;;;;5043445;28;20069;-76
2021/09/01 02:37:46;;;;;;;0.90;0.90;;;;;;;;;;5028488;28;20450;-76
2021/09/01 02:40:12;;;;;;;4.68;1.10;;;;;;;;;;4984614;28;20521;-76
2021/09/01 02:42:39;;;;;;;1.77;1.02;;;;;;;;;;4987746;28;20093;-76
2021/09/01 02:45:06;;;;;;;2.70;1.10;;;;;;;;;;4990046;28;20093;-76
2021/09/01 02:47:32;;;;;;;0.90;0.90;;;;;;;;;;4989528;28;20538;-76
2021/09/01 02:49:59;;;;;;;1.10;1.10;;;;;;;;;;4989467;28;20537;-76
2021/09/01 02:52:26;;;;;;;0.90;0.90;;;;;;;;;;4987955;28;20121;-76
2021/09/01 02:54:52;;;;;;;2.65;1.20;;;;;;;;;;4985558;28;20046;-76
2021/09/01 02:57:19;;;;;;;0.93;0.93;;;;;;;;;;4984336;28;20465;-76
2021/09/01 02:59:45;;;;;;;1.15;1.00;;;;;;;;;;4985652;28;20475;-76
2021/09/01 03:02:12;;;;;;;1.30;1.30;;;;;;;;;;5019683;28;20058;-76
2021/09/01 03:04:39;;;;;;;1.00;1.00;;;;;;;;;;4987234;28;20035;-76
2021/09/01 03:07:05;;;;;;;1.00;1.00;;;;;;;;;;4987018;28;20483;-76
2021/09/01 03:09:32;;;;;;;0.90;0.90;;;;;;;;;;4987427;28;20035;-76
2021/09/01 03:11:59;;;;;;;2.45;1.00;;;;;;;;;;4988932;28;20034;-76
2021/09/01 03:14:25;;;;;;;4.03;1.10;;;;;;;;;;4989410;28;20074;-76
2021/09/01 03:16:52;;;;;;;1.13;0.98;;;;;;;;;;4988350;28;20116;-76
2021/09/01 03:19:18;;;;;;;1.75;1.20;;;;;;;;;;4983246;28;20085;-76
2021/09/01 03:21:45;;;;;;;2.47;1.00;;;;;;;;;;4980228;28;20039;-76
2021/09/01 03:24:11;;;;;;;1.00;1.00;;;;;;;;;;4982864;28;20495;-76
2021/09/01 03:26:38;;;;;;;1.00;1.00;;;;;;;;;;4996630;28;20039;-76
2021/09/01 03:29:05;;;;;;;1.30;1.30;;;;;;;;;;4985287;28;20038;-76
2021/09/01 03:31:31;;;;;;;1.00;1.00;;;;;;;;;;4984999;28;20117;-76
2021/09/01 03:33:58;;;;;;;1.30;1.30;;;;;;;;;;4990666;28;20050;-76
2021/09/01 03:36:25;;;;;;;1.60;1.60;;;;;;;;;;4987263;28;20058;-76
2021/09/01 03:38:51;;;;;;;10.07;1.30;;;;;;;;;;5013321;28;20578;-76
2021/09/01 03:41:18;;;;;;;1.33;1.33;;;;;;;;;;5027892;28;20076;-76
2021/09/01 03:43:45;;;;;;;1.48;1.17;;;;;;;;;;5026394;28;20477;-76
2021/09/01 03:46:11;;;;;;;1.17;1.17;;;;;;;;;;5029064;28;20076;-76
2021/09/01 03:48:38;;;;;;;1.00;1.00;;;;;;;;;;5022917;28;20033;-76
2021/09/01 03:51:06;;;;;;;0.88;0.88;;;;;;;;;;5016830;28;20041;-76
2021/09/01 03:53:32;;;;;;;1.00;1.00;;;;;;;;;;5027224;28;20587;-76
2021/09/01 03:55:59;;;;;;;0.90;0.90;;;;;;;;;;5030793;28;20425;-76
2021/09/01 03:58:25;;;;;;;1.15;1.10;;;;;;;;;;5030672;28;20061;-76
2021/09/01 04:00:52;;;;;;;1.10;1.10;;;;;;;;;;5026800;28;20045;-76
2021/09/01 04:03:19;;;;;;;1.20;1.10;;;;;;;;;;5031815;28;20044;-76
2021/09/01 04:05:46;;;;;;;1.00;1.00;;;;;;;;;;5029021;28;20708;-76
2021/09/01 04:08:12;;;;;;;1.15;1.15;;;;;;;;;;5030022;28;20099;-76
2021/09/01 04:10:39;;;;;;;1.00;1.00;;;;;;;;;;5030714;28;20160;-76
2021/09/01 04:13:05;;;;;;;1.08;1.00;;;;;;;;;;5029502;28;20047;-76
2021/09/01 04:15:32;;;;;;;0.98;0.98;;;;;;;;;;5026287;28;20096;-76
2021/09/01 04:17:58;;;;;;;1.15;1.00;;;;;;;;;;5027851;28;20091;-76
2021/09/01 04:20:25;;;;;;;1.00;1.00;;;;;;;;;;5027936;28;20045;-76
2021/09/01 04:22:52;;;;;;;1.25;1.10;;;;;;;;;;5031336;28;20073;-76
2021/09/01 04:25:18;;;;;;;1.00;1.00;;;;;;;;;;5030359;28;20080;-76
2021/09/01 04:27:45;;;;;;;3.50;1.17;;;;;;;;;;5029257;28;20050;-76
2021/09/01 04:30:12;;;;;;;2.50;1.75;;;;;;;;;;5043087;28;20116;-76
2021/09/01 04:32:38;;;;;;;1.17;1.17;;;;;;;;;;5028601;28;20095;-76
2021/09/01 04:35:05;;;;;;;1.73;1.73;;;;;;;;;;5027895;28;20038;-76
2021/09/01 04:37:32;;;;;;;1.30;1.30;;;;;;;;;;5029142;28;20065;-76
2021/09/01 04:39:58;;;;;;;1.75;1.20;;;;;;;;;;5030127;28;20107;-76
2021/09/01 04:42:25;;;;;;;1.77;1.45;;;;;;;;;;5028270;28;20037;-76
2021/09/01 04:44:51;;;;;;;4.22;1.95;;;;;;;;;;5030094;28;20037;-76
2021/09/01 04:47:18;;;;;;;1.20;1.17;;;;;;;;;;5030761;28;20588;-76
2021/09/01 04:49:44;;;;;;;3.10;2.00;;;;;;;;;;5029414;28;20064;-76
2021/09/01 04:52:11;;;;;;;1.83;1.73;;;;;;;;;;5062710;28;20049;-76
2021/09/01 04:54:37;;;;;;;3.75;1.63;;;;;;;;;;5028345;28;20069;-76
2021/09/01 04:57:04;;;;;;;1.52;1.42;;;;;;;;;;5030807;28;20497;-76
2021/09/01 04:59:31;;;;;;;1.80;1.70;;;;;;;;;;5029812;28;20658;-76
2021/09/01 05:01:57;;;;;;;1.35;1.20;;;;;;;;;;5026029;28;21180;-76
2021/09/01 05:04:24;;;;;;;1.40;1.05;;;;;;;;;;5028021;28;20512;-76
2021/09/01 05:06:51;;;;;;;1.13;1.10;;;;;;;;;;5026588;28;20073;-76
2021/09/01 05:09:18;;;;;;;1.40;1.30;;;;;;;;;;5022711;28;20373;-76
2021/09/01 05:11:44;;;;;;;1.25;1.20;;;;;;;;;;5029982;28;20103;-76
2021/09/01 05:14:11;;;;;;;5.07;1.45;;;;;;;;;;5027311;28;20517;-76
2021/09/01 05:16:38;;;;;;;1.15;1.15;;;;;;;;;;5030294;28;20038;-76
2021/09/01 05:19:05;;;;;;;1.40;1.15;;;;;;;;;;5025830;28;20095;-76
2021/09/01 05:21:33;;;;;;;1.50;1.50;;;;;;;;;;5027978;28;20099;-76
2021/09/01 05:24:00;;;;;;;1.88;1.38;;;;;;;;;;5012000;28;20049;-76
2021/09/01 05:26:30;;;;;;;1.73;1.73;;;;;;;;;;5029156;28;20521;-76
2021/09/01 05:29:00;;;;;;;2.97;1.30;;;;;;;;;;5026540;28;20037;-76
2021/09/01 05:31:31;;;;;;;1.10;1.10;;;;;;;;;;5027246;28;20445;-76
2021/09/01 05:34:00;;;;;;;1.63;1.52;;;;;;;;;;5028369;28;20056;-75
2021/09/01 05:36:27;;;;;;;3.30;1.25;;;;;;;;;;5030201;28;20407;-75
2021/09/01 05:38:55;;;;;;;1.95;1.20;;;;;;;;;;5027773;28;20045;-75
2021/09/01 05:41:21;;;;;;;3.90;1.20;;;;;;;;;;5027629;28;20336;-75
2021/09/01 05:43:50;;;;;;;1.17;1.10;;;;;;;;;;5038770;28;20036;-75
2021/09/01 05:46:18;;;;;;;4.97;1.30;;;;;;;;;;5046339;28;20045;-75
2021/09/01 05:48:45;;;;;;;3.42;1.13;;;;;;;;;;5028596;28;20045;-75
2021/09/01 05:51:13;;;;;;;2.15;1.08;;;;;;;;;;5026276;28;20524;-75
2021/09/01 05:53:39;;;;;;;1.40;1.30;;;;;;;;;;5029675;28;20505;-77
2021/09/01 05:56:09;;;;;;;0.93;0.93;;;;;;;;;;5027586;28;20034;-76
2021/09/01 05:58:37;;;;;;;1.00;1.00;;;;;;;;;;5023963;28;20325;-76
2021/09/01 06:01:06;;;;;;;7.03;1.20;;;;;;;;;;5027535;28;20073;-76
2021/09/01 06:03:33;;;;;;;1.70;1.20;;;;;;;;;;5025324;28;20048;-76
2021/09/01 06:06:01;;;;;;;2.80;2.13;;;;;;;;;;5015914;28;20045;-76
2021/09/01 06:08:33;;;;;;;1.30;1.30;;;;;;;;;;5029236;28;20367;-76
2021/09/01 06:11:02;;;;;;;2.25;1.20;;;;;;;;;;5027689;28;20448;-76
2021/09/01 06:13:28;;;;;;;2.17;1.45;;;;;;;;;;5028846;28;20379;-76
2021/09/01 06:15:56;;;;;;;5.35;2.13;;;;;;;;;;5030009;28;20042;-76
2021/09/01 06:18:23;;;;;;;3.10;1.33;;;;;;;;;;5026920;28;20069;-76
2021/09/01 06:20:50;;;;;;;5.22;2.50;;;;;;;;;;5029074;28;20048;-76
2021/09/01 06:23:17;;;;;;;6.65;1.48;;;;;;;;;;5026120;28;20095;-76
2021/09/01 06:25:43;;;;;;;1.42;1.20;;;;;;;;;;5027433;28;20048;-76
2021/09/01 06:28:10;;;;;;;1.08;1.08;;;;;;;;;;5030273;28;20555;-76
2021/09/01 06:30:36;;;;;;;5.00;1.40;;;;;;;;;;5029193;28;20119;-76
2021/09/01 06:33:04;;;;;;;2.47;1.15;;;;;;;;;;5060969;28;20041;-76
2021/09/01 06:35:30;;;;;;;3.35;1.10;;;;;;;;;;5027299;28;20095;-76
2021/09/01 06:37:57;;;;;;;5.20;1.88;;;;;;;;;;5027329;28;20422;-76
2021/09/01 06:40:24;;;;;;;7.82;1.50;;;;;;;;;;5061271;28;20042;-76
2021/09/01 06:42:50;;;;;;;1.52;1.20;;;;;;;;;;5026579;28;20034;-76
2021/09/01 06:45:17;;;;;;;4.53;1.33;;;;;;;;;;5028769;28;20038;-76
2021/09/01 06:47:43;;;;;;;1.20;1.20;;;;;;;;;;5027661;28;20053;-76
2021/09/01 06:50:12;;;;;;;1.65;0.90;;;;;;;;;;5028187;28;20099;-76
2021/09/01 06:52:39;;;;;;;2.50;1.00;;;;;;;;;;5061349;28;20041;-76
2021/09/01 06:55:06;;;;;;;2.63;0.90;;;;;;;;;;5028276;28;20060;-76
2021/09/01 06:57:33;;;;;;;0.90;0.90;;;;;;;;;;5029852;28;20060;-76
2021/09/01 07:00:00;;;;;;;1.00;0.90;;;;;;;;;;5028712;28;20687;-76
2021/09/01 07:02:26;;;;;;;1.70;0.80;;;;;;;;;;5026870;28;20107;-76
2021/09/01 07:04:53;;;;;;;2.10;0.98;;;;;;;;;;5029224;28;20034;-76
2021/09/01 07:07:20;;;;;;;0.98;0.80;;;;;;;;;;5027499;28;20490;-76
2021/09/01 07:09:46;;;;;;;1.10;0.80;;;;;;;;;;5028501;28;20520;-76
2021/09/01 07:12:13;;;;;;;2.60;0.90;;;;;;;;;;5028074;28;20076;-76
2021/09/01 07:14:40;;;;;;;1.75;0.98;;;;;;;;;;5026774;28;20096;-76
2021/09/01 07:17:06;;;;;;;0.95;0.80;;;;;;;;;;5028006;28;20049;-76
2021/09/01 07:19:33;;;;;;;1.30;1.25;;;;;;;;;;5027205;28;20436;-76
2021/09/01 07:21:59;;;;;;;1.58;0.80;;;;;;;;;;5011437;28;20038;-76
2021/09/01 07:24:26;;;;;;;1.77;0.80;;;;;;;;;;5043044;28;20277;-76
2021/09/01 07:26:53;;;;;;;2.75;0.90;;;;;;;;;;5026760;28;20092;-76
2021/09/01 07:29:19;;;;;;;1.13;0.82;;;;;;;;;;5031939;28;20449;-76
2021/09/01 07:31:46;;;;;;;1.20;0.85;;;;;;;;;;5027694;28;20069;-76
2021/09/01 07:34:12;;;;;;;0.90;0.85;;;;;;;;;;5031082;28;20079;-76
2021/09/01 07:36:39;;;;;;;0.93;0.80;;;;;;;;;;5033692;28;20075;-76
2021/09/01 07:39:06;;;;;;;1.20;0.90;;;;;;;;;;5028759;28;20430;-76
2021/09/01 07:41:33;;;;;;;1.98;0.90;;;;;;;;;;5033981;28;20398;-76
2021/09/01 07:44:00;;;;;;;2.95;1.23;;;;;;;;;;5030134;28;20535;-76
2021/09/01 07:46:26;;;;;;;1.10;0.70;;;;;;;;;;5030483;28;20037;-76
2021/09/01 07:48:57;;;;;;;2.95;0.75;;;;;;;;;;5032367;28;20037;-76
2021/09/01 07:51:24;;;;;;;1.05;0.80;;;;;;;;;;5031590;28;20498;-76
2021/09/01 07:53:50;;;;;;;1.25;0.70;;;;;;;;;;5032697;28;20481;-76
2021/09/01 07:56:17;;;;;;;0.70;0.70;;;;;;;;;;5031411;28;20520;-76
2021/09/01 07:58:43;;;;;;;1.77;0.73;;;;;;;;;;5031071;28;20084;-76
2021/09/01 08:01:10;;;;;;;0.70;0.70;;;;;;;;;;5032702;28;20045;-76
2021/09/01 08:03:37;;;;;;;0.55;0.55;;;;;;;;;;5030269;28;20038;-76
2021/09/01 08:06:07;;;;;;;0.70;0.70;;;;;;;;;;5032250;28;20041;-76
2021/09/01 08:08:34;;;;;;;0.60;0.60;;;;;;;;;;5031067;28;20033;-76
2021/09/01 08:11:00;;;;;;;0.60;0.60;;;;;;;;;;5062834;28;20038;-76
2021/09/01 08:13:27;;;;;;;1.40;0.60;;;;;;;;;;5032401;28;20087;-76
2021/09/01 08:15:54;;;;;;;1.20;0.60;;;;;;;;;;5029707;28;20037;-76
2021/09/01 08:18:20;;;;;;;1.48;0.70;;;;;;;;;;5029603;28;20486;-76
2021/09/01 08:20:47;;;;;;;0.60;0.60;;;;;;;;;;5030445;28;20080;-76
2021/09/01 08:23:13;;;;;;;0.60;0.60;;;;;;;;;;5030547;28;20026;-76
2021/09/01 08:25:40;;;;;;;0.70;0.70;;;;;;;;;;5031552;28;20056;-76
2021/09/01 08:28:07;;;;;;;2.50;0.50;;;;;;;;;;5031066;28;20519;-76
2021/09/01 08:30:33;;;;;;;0.60;0.60;;;;;;;;;;5014997;28;20553;-76
2021/09/01 08:33:00;;;;;;;0.80;0.60;;;;;;;;;;5030645;28;20041;-76
2021/09/01 08:35:27;;;;;;;0.60;0.60;;;;;;;;;;5030585;28;20033;-76
2021/09/01 08:37:53;;;;;;;0.50;0.50;;;;;;;;;;5031659;28;20050;-76
2021/09/01 08:40:20;;;;;;;1.33;0.57;;;;;;;;;;5030826;28;20037;-76
2021/09/01 08:42:47;;;;;;;1.48;0.60;;;;;;;;;;5032084;28;20048;-76
2021/09/01 08:45:14;;;;;;;4.50;0.60;;;;;;;;;;5037942;28;20451;-76
2021/09/01 08:47:42;;;;;;;0.60;0.60;;;;;;;;;;5035347;28;20036;-77
2021/09/01 08:50:10;;;;;;;0.50;0.50;;;;;;;;;;5027626;28;20076;-77
2021/09/01 08:52:38;;;;;;;0.60;0.60;;;;;;;;;;5030461;28;20045;-77
2021/09/01 08:55:06;;;;;;;1.20;0.63;;;;;;;;;;5030278;28;20038;-77
2021/09/01 08:57:33;;;;;;;1.85;0.52;;;;;;;;;;5032143;28;20454;-77
2021/09/01 08:59:59;;;;;;;0.90;0.50;;;;;;;;;;5029607;28;20041;-77
2021/09/01 09:02:28;;;;;;;0.50;0.50;;;;;;;;;;5026835;28;20116;-77
2021/09/01 09:04:55;;;;;;;0.50;0.50;;;;;;;;;;5028739;28;20042;-77
2021/09/01 09:07:24;;;;;;;0.50;0.50;;;;;;;;;;5015186;28;20069;-77
2021/09/01 09:09:51;;;;;;;0.40;0.40;;;;;;;;;;5030079;28;20041;-77
2021/09/01 09:12:28;;;;;;;0.40;0.40;;;;;;;;;;5030376;28;20068;-77
2021/09/01 09:14:54;;;;;;;1.38;0.50;;;;;;;;;;5029655;28;20061;-77
2021/09/01 09:17:21;;;;;;;0.40;0.40;;;;;;;;;;5029179;28;20081;-77
2021/09/01 09:19:49;;;;;;;0.50;0.50;;;;;;;;;;5058834;28;20033;-77
2021/09/01 09:22:31;;;;;;;0.73;0.40;;;;;;;;;;5030693;28;20467;-77
2021/09/01 09:25:04;;;;;;;0.50;0.40;;;;;;;;;;5030039;28;20084;-77
2021/09/01 09:27:45;;;;;;;0.50;0.50;;;;;;;;;;5028542;28;20138;-77
2021/09/01 09:30:21;;;;;;;0.40;0.40;;;;;;;;;;5062268;28;20346;-77
2021/09/01 09:32:52;;;;;;;1.85;0.50;;;;;;;;;;5028533;28;20045;-77
2021/09/01 09:35:18;;;;;;;1.25;0.40;;;;;;;;;;5013069;28;20071;-77
2021/09/01 09:38:04;;;;;;;0.40;0.40;;;;;;;;;;5029497;28;20037;-77
2021/09/01 09:40:31;;;;;;;1.20;0.73;;;;;;;;;;5029767;28;20065;-77
2021/09/01 09:43:11;;;;;;;0.40;0.40;;;;;;;;;;5031260;28;20053;-77
2021/09/01 09:45:37;;;;;;;0.40;0.40;;;;;;;;;;5029321;28;20107;-77
2021/09/01 09:48:04;;;;;;;0.30;0.30;;;;;;;;;;5028655;28;20090;-77
2021/09/01 09:50:32;;;;;;;0.60;0.60;;;;;;;;;;5030037;28;20051;-77
2021/09/01 09:52:59;;;;;;;1.17;0.40;;;;;;;;;;5028978;28;20103;-77
2021/09/01 09:55:25;;;;;;;0.30;0.30;;;;;;;;;;5030281;28;20041;-77
2021/09/01 09:57:56;;;;;;;0.85;0.30;;;;;;;;;;5028666;28;20042;-77
2021/09/01 10:00:24;;;;;;;0.40;0.40;;;;;;;;;;5029329;28;20509;-77
2021/09/01 10:02:51;;;;;;;3.05;0.52;;;;;;;;;;5026886;28;20034;-77
2021/09/01 10:05:18;;;;;;;0.30;0.30;;;;;;;;;;5020438;28;20797;-77
2021/09/01 10:07:46;;;;;;;0.40;0.40;;;;;;;;;;5059512;28;20042;-77
2021/09/01 10:10:14;;;;;;;0.40;0.40;;;;;;;;;;5026912;28;20029;-77
2021/09/01 10:12:41;;;;;;;0.40;0.40;;;;;;;;;;5025246;28;20103;-77
2021/09/01 10:15:09;;;;;;;0.30;0.30;;;;;;;;;;5026600;28;20045;-77
2021/09/01 10:17:39;;;;;;;0.40;0.40;;;;;;;;;;5025676;28;20428;-77
2021/09/01 10:20:07;;;;;;;0.40;0.40;;;;;;;;;;5029546;28;20041;-77
2021/09/01 10:22:34;;;;;;;0.40;0.40;;;;;;;;;;5027511;28;20083;-77
2021/09/01 10:25:01;;;;;;;0.40;0.40;;;;;;;;;;5034179;28;20045;-77
2021/09/01 10:27:29;;;;;;;0.40;0.40;;;;;;;;;;5031180;28;20033;-77
2021/09/01 10:30:06;;;;;;;0.40;0.40;;;;;;;;;;5060729;28;20041;-77
2021/09/01 10:32:51;;;;;;;0.40;0.40;;;;;;;;;;5028887;28;20056;-77
2021/09/01 10:35:17;;;;;;;0.38;0.30;;;;;;;;;;5029866;28;20421;-77
2021/09/01 10:37:45;;;;;;;0.35;0.30;;;;;;;;;;5028242;28;20446;-77
2021/09/01 10:40:21;;;;;;;0.30;0.30;;;;;;;;;;5025692;28;20183;-77
2021/09/01 10:42:52;;;;;;;1.15;0.40;;;;;;;;;;5030276;28;20045;-77
2021/09/01 10:45:20;;;;;;;0.30;0.30;;;;;;;;;;5043392;28;20029;-77
2021/09/01 10:47:49;;;;;;;0.30;0.30;;;;;;;;;;5027633;28;20049;-77
2021/09/01 10:50:16;;;;;;;0.30;0.30;;;;;;;;;;5028285;28;20092;-77
2021/09/01 10:53:03;;;;;;;0.30;0.30;;;;;;;;;;5028926;28;20048;-77
2021/09/01 10:55:30;;;;;;;0.40;0.40;;;;;;;;;;5026584;28;20120;-77
2021/09/01 10:58:16;;;;;;;0.35;0.35;;;;;;;;;;5029137;28;20037;-77
2021/09/01 11:00:43;;;;;;;0.40;0.40;;;;;;;;;;5025086;28;20449;-77
2021/09/01 11:03:10;;;;;;;0.30;0.30;;;;;;;;;;5030286;28;20416;-77
2021/09/01 11:05:37;;;;;;;0.30;0.30;;;;;;;;;;5030904;28;20030;-77
2021/09/01 11:08:04;;;;;;;0.30;0.30;;;;;;;;;;5033372;28;20497;-77
2021/09/01 11:10:31;;;;;;;0.30;0.30;;;;;;;;;;5030326;28;20037;-77
2021/09/01 11:13:01;;;;;;;0.28;0.28;;;;;;;;;;5014553;28;20107;-77
2021/09/01 11:15:42;;;;;;;0.30;0.30;;;;;;;;;;5064371;28;20458;-77
2021/09/01 11:18:08;;;;;;;0.32;0.32;;;;;;;;;;5029908;28;20087;-77
2021/09/01 11:20:35;;;;;;;0.20;0.20;;;;;;;;;;5030966;28;20045;-77
2021/09/01 11:23:02;;;;;;;0.30;0.30;;;;;;;;;;5032025;28;20069;-77
2021/09/01 11:25:32;;;;;;;0.30;0.30;;;;;;;;;;5030420;28;20718;-77
2021/09/01 11:27:59;;;;;;;0.30;0.30;;;;;;;;;;5032583;28;20095;-77
2021/09/01 11:30:32;;;;;;;0.20;0.20;;;;;;;;;;5032270;28;20034;-77
2021/09/01 11:32:59;;;;;;;0.43;0.25;;;;;;;;;;5032405;28;20067;-77
2021/09/01 11:35:27;;;;;;;0.45;0.30;;;;;;;;;;5031307;28;20096;-77
2021/09/01 11:37:58;;;;;;;0.20;0.20;;;;;;;;;;5031144;28;20047;-77
2021/09/01 11:40:35;;;;;;;0.30;0.30;;;;;;;;;;5032177;28;20049;-77
2021/09/01 11:43:09;;;;;;;0.30;0.30;;;;;;;;;;5030411;28;20108;-77
2021/09/01 11:45:49;;;;;;;0.30;0.30;;;;;;;;;;5063404;28;20393;-77
2021/09/01 11:48:16;;;;;;;0.30;0.30;;;;;;;;;;5033260;28;20469;-77
2021/09/01 11:50:43;;;;;;;0.30;0.30;;;;;;;;;;5061957;28;20053;-77
2021/09/01 11:53:24;;;;;;;0.20;0.20;;;;;;;;;;5015898;28;20049;-77
2021/09/01 11:55:50;;;;;;;0.20;0.20;;;;;;;;;;5030915;28;20402;-77
2021/09/01 11:58:18;;;;;;;0.30;0.30;;;;;;;;;;5013892;28;20049;-77
2021/09/01 12:00:45;;;;;;;0.20;0.20;;;;;;;;;;5047825;28;20129;-77
2021/09/01 12:03:12;;;;;;;0.30;0.30;;;;;;;;;;5029024;28;20041;-77
2021/09/01 12:05:43;;;;;;;0.50;0.20;;;;;;;;;;5031081;28;20069;-77
2021/09/01 12:08:17;;;;;;;0.28;0.28;;;;;;;;;;5031499;28;20469;-77
2021/09/01 12:10:45;;;;;;;0.28;0.28;;;;;;;;;;5061355;28;20056;-77
2021/09/01 12:13:12;;;;;;;1.17;0.20;;;;;;;;;;5014289;28;20087;-77
2021/09/01 12:15:38;;;;;;;0.20;0.20;;;;;;;;;;5031010;28;20044;-77
2021/09/01 12:18:06;;;;;;;0.20;0.20;;;;;;;;;;5029407;28;20124;-77
2021/09/01 12:20:34;;;;;;;0.20;0.20;;;;;;;;;;5013188;28;20099;-77
2021/09/01 12:23:21;;;;;;;0.55;0.22;;;;;;;;;;5029330;28;20038;-77
2021/09/01 12:25:49;;;;;;;0.20;0.20;;;;;;;;;;5028187;28;20057;-77
2021/09/01 12:28:17;;;;;;;0.45;0.30;;;;;;;;;;5032464;28;20482;-77
2021/09/01 12:30:45;;;;;;;0.30;0.30;;;;;;;;;;5027679;28;20138;-77
2021/09/01 12:33:13;;;;;;;0.30;0.30;;;;;;;;;;5030952;28;20065;-77
2021/09/01 12:35:41;;;;;;;0.47;0.20;;;;;;;;;;5030621;28;20037;-77
2021/09/01 12:38:08;;;;;;;0.20;0.20;;;;;;;;;;5029103;28;20108;-77
2021/09/01 12:40:39;;;;;;;0.20;0.20;;;;;;;;;;5063371;28;20037;-77
2021/09/01 12:43:11;;;;;;;0.30;0.30;;;;;;;;;;5043231;28;20494;-77
2021/09/01 12:45:39;;;;;;;0.20;0.20;;;;;;;;;;5015950;28;20076;-77
2021/09/01 12:48:08;;;;;;;0.80;0.30;;;;;;;;;;5032485;28;20025;-77
2021/09/01 12:50:39;;;;;;;0.20;0.20;;;;;;;;;;5030758;28;20024;-77
2021/09/01 12:53:07;;;;;;;1.95;0.30;;;;;;;;;;5031531;28;20396;-77
2021/09/01 12:55:39;;;;;;;0.28;0.28;;;;;;;;;;5031416;28;20497;-77
2021/09/01 12:58:06;;;;;;;0.20;0.20;;;;;;;;;;5029995;28;20056;-77
2021/09/01 13:00:33;;;;;;;0.20;0.20;;;;;;;;;;5030058;28;20284;-77
2021/09/01 13:03:03;;;;;;;0.25;0.20;;;;;;;;;;5028963;28;20036;-77
2021/09/01 13:05:30;;;;;;;0.20;0.20;;;;;;;;;;5019434;28;20107;-77
2021/09/01 13:07:57;;;;;;;1.38;0.20;;;;;;;;;;5030021;28;20116;-77
2021/09/01 13:10:24;;;;;;;0.20;0.20;;;;;;;;;;5029852;28;20485;-77
2021/09/01 13:12:52;;;;;;;0.20;0.20;;;;;;;;;;5029994;28;20056;-77
2021/09/01 13:15:20;;;;;;;0.20;0.20;;;;;;;;;;5030022;28;20083;-77
2021/09/01 13:17:46;;;;;;;0.35;0.20;;;;;;;;;;5031068;28;20030;-77
2021/09/01 13:20:14;;;;;;;0.13;0.13;;;;;;;;;;5026239;28;20402;-77
2021/09/01 13:22:42;;;;;;;0.20;0.20;;;;;;;;;;5018474;28;20041;-77
2021/09/01 13:25:09;;;;;;;0.20;0.20;;;;;;;;;;5027995;28;20462;-77
2021/09/01 13:27:36;;;;;;;0.75;0.20;;;;;;;;;;5028570;28;20069;-77
2021/09/01 13:30:04;;;;;;;0.20;0.20;;;;;;;;;;5029658;28;20037;-77
2021/09/01 13:32:31;;;;;;;0.20;0.20;;;;;;;;;;5030501;28;20041;-77
2021/09/01 13:34:58;;;;;;;0.20;0.20;;;;;;;;;;5059622;28;20068;-77
2021/09/01 13:37:25;;;;;;;0.20;0.20;;;;;;;;;;5030622;28;20144;-77
2021/09/01 13:39:52;;;;;;;0.20;0.20;;;;;;;;;;5028604;28;20485;-77
2021/09/01 13:42:18;;;;;;;0.20;0.20;;;;;;;;;;5028563;28;20061;-77
2021/09/01 13:44:45;;;;;;;0.20;0.20;;;;;;;;;;5029923;28;20394;-77
2021/09/01 13:47:12;;;;;;;0.20;0.20;;;;;;;;;;5027737;28;20042;-77
2021/09/01 13:49:38;;;;;;;0.20;0.20;;;;;;;;;;5030918;28;20441;-77
2021/09/01 13:52:06;;;;;;;0.20;0.20;;;;;;;;;;5028323;28;20413;-77
2021/09/01 13:54:32;;;;;;;0.20;0.20;;;;;;;;;;5027850;28;20088;-77
2021/09/01 13:57:00;;;;;;;0.20;0.20;;;;;;;;;;5031050;28;20041;-77
2021/09/01 13:59:31;;;;;;;0.20;0.20;;;;;;;;;;5027677;28;20041;-77
2021/09/01 14:01:58;;;;;;;0.20;0.20;;;;;;;;;;5025446;28;20073;-77
2021/09/01 14:04:26;;;;;;;0.20;0.20;;;;;;;;;;5029571;28;20041;-77
2021/09/01 14:06:53;;;;;;;0.20;0.20;;;;;;;;;;5028888;28;20124;-77
2021/09/01 14:09:19;;;;;;;0.90;0.20;;;;;;;;;;5029243;28;20037;-77
2021/09/01 14:11:46;;;;;;;0.20;0.20;;;;;;;;;;5028624;28;20393;-77
2021/09/01 14:14:14;;;;;;;1.50;0.88;;;;;;;;;;5061224;28;20038;-77
2021/09/01 14:16:41;;;;;;;1.73;0.20;;;;;;;;;;5028625;28;20039;-77
2021/09/01 14:19:10;;;;;;;0.20;0.20;;;;;;;;;;5029270;28;20046;-77
2021/09/01 14:21:37;;;;;;;0.20;0.20;;;;;;;;;;5029877;28;20041;-77
2021/09/01 14:24:03;;;;;;;0.35;0.20;;;;;;;;;;5027604;28;20042;-77
2021/09/01 14:26:30;;;;;;;0.20;0.20;;;;;;;;;;5027566;28;20033;-77
2021/09/01 14:28:56;;;;;;;0.30;0.30;;;;;;;;;;5060394;28;20045;-77
2021/09/01 14:31:23;;;;;;;1.15;0.30;;;;;;;;;;5029138;28;20072;-77
2021/09/01 14:33:50;;;;;;;1.05;0.93;;;;;;;;;;5028662;28;20132;-77
2021/09/01 14:36:16;;;;;;;0.28;0.28;;;;;;;;;;5028471;28;20041;-77
2021/09/01 14:38:46;;;;;;;0.30;0.30;;;;;;;;;;5026238;28;20060;-77
2021/09/01 14:41:16;;;;;;;0.30;0.30;;;;;;;;;;5029096;28;20049;-77
2021/09/01 14:43:42;;;;;;;2.75;0.30;;;;;;;;;;5059194;28;20088;-77
2021/09/01 14:46:09;;;;;;;0.30;0.30;;;;;;;;;;5029633;28;20029;-77